Nearby METAR Reports

METAR is the scheduled surface weather observation taken hourly at civil and military airport locations.

METAR is an acronym from the French language and roughly translates as Aviation Routine Weather Report.

 

EGPL - Benbecula Island, United Kingdom
Distance from station: WNW 41mi, 66km
Updated: 20/07/2017 15:20
Few Clouds
Few Clouds
 Wind from W
Wind: W 8 mph , 13 km/h
Temperature: 17°C
Dew Point: 9°C
Humidity: 59%
Barometer: 1003 hPa
Clouds: Few Clouds
Visibility: 6 miles , 10 km
Cloud details: Few Clouds 732 m
2017/07/20 14:20 EGPL 201420Z 27007KT 9999 FEW024 17/09 Q1003
EGPU - Tiree Island, United Kingdom
Distance from station: SSW 56mi, 90km
Updated: 20/07/2017 15:20
Few Clouds
Few Clouds
 Wind from SSW
Wind: SSW 8 mph , 13 km/h
Temperature: 15°C
Dew Point: 9°C
Humidity: 68%
Barometer: 1003 hPa
Clouds: Few Clouds
Visibility: 6 miles , 10 km
Cloud details: Few Clouds 884 m
2017/07/20 14:20 EGPU 201420Z 20007KT 9999 FEW029 15/09 Q1003
 
EGEO - Oban Airport, United Kingdom
Distance from station: SE 65mi, 105km
Updated: 20/07/2017 15:20
Partly cloudy
Partly cloudy
 Wind from WSW
Wind: WSW 10 mph , 17 km/h
Temperature: 16°C
Dew Point: 7°C
Humidity: 55%
Barometer: 1003 hPa
Clouds: Partly cloudy
Visibility: 6 miles , 10 km
Cloud details: Partly cloudy 1280 m
2017/07/20 14:20 EGEO 201420Z 24009KT 9999 SCT042 16/07 Q1003
EGPO - Stornoway, United Kingdom
Distance from station: 0 66mi, 106km
Updated: 20/07/2017 15:20
Partly cloudy
Partly cloudy
 Wind from SE
Wind: SE 8 mph , 13 km/h
Temperature: 16°C
Dew Point: 11°C
Humidity: 72%
Barometer: 1003 hPa
Clouds: Partly cloudy
Visibility: 6 miles , 10 km
Cloud details: Few Clouds 671 m
Partly cloudy 1067 m
2017/07/20 14:20 EGPO 201420Z 14007KT 9999 FEW022 SCT035 16/11 Q1003
 
EGPE - Inverness/Dalcro, United Kingdom
Distance from station: ENE 88mi, 141km
Updated: 20/07/2017 15:20
Nearby showers, Mostly cloudy
Nearby showers, Mostly cloudy
 Wind from varies
Wind: varies 3 mph , 6 km/h
Temperature: 14°C
Dew Point: 13°C
Humidity: 94%
Barometer: 1003 hPa
Summary: Nearby Showers
Clouds: Mostly cloudy
Visibility: 6 miles , 10 km
Cloud details: Few Clouds 30 m
Partly cloudy 366 m
Mostly cloudy 1036 m
2017/07/20 14:20 EGPE 201420Z VRB03KT 9999 5000NE VCSH FEW001 SCT012 BKN034 14/13 Q1003
EGQA - Tain Range (saws, United Kingdom
Distance from station: ENE 97mi, 156km
Updated: 20/07/2017 14:50
Nearby showers, Mostly cloudy
Nearby showers, Mostly cloudy
 Wind from WNW
Wind: WNW 10 mph , 17 km/h
Summary: Nearby Showers
Clouds: Mostly cloudy
Visibility: 6 miles , 10 km
Cloud details: Partly cloudy 366 m
Mostly cloudy 914 m
2017/07/20 13:50 EGQA 201350Z 29009KT 9999 VCSH SCT012 BKN030 12/// Q1003 GRN
 
EGQK - Kinloss Raf, United Kingdom
Distance from station: ENE 107mi, 171km
Updated: 20/07/2017 14:50
Light drizzle, Mostly cloudy
Light drizzle, Mostly cloudy
 Wind from NW
Wind: NW 9 mph , 15 km/h
Temperature: 13°C
Dew Point: 12°C
Humidity: 94%
Barometer: 1002 hPa
Summary: Light Drizzle
Clouds: Mostly cloudy
Visibility: 6 miles , 10 km
Cloud details: Few Clouds 183 m
Mostly cloudy 305 m
2017/07/20 13:50 EGQK 201350Z AUTO 31008KT 9999 -DZ FEW006/// BKN010/// 13/12 Q1002
EGPI - Islay/Port Ellen, United Kingdom
Distance from station: S 110mi, 177km
Updated: 20/07/2017 15:20
Partly cloudy
Partly cloudy
 Wind from varies
Wind: varies 2 mph , 4 km/h
Temperature: 15°C
Dew Point: 7°C
Humidity: 59%
Barometer: 1003 hPa
Clouds: Partly cloudy
Visibility: 6 miles , 10 km
Cloud details: Partly cloudy 1067 m
2017/07/20 14:20 EGPI 201420Z VRB02KT 9999 SCT035 15/07 Q1003
 
EGQS - Lossiemouth Raf, United Kingdom
Distance from station: ENE 117mi, 188km
Updated: 20/07/2017 14:50
Overcast
Overcast
 Wind from NW
Wind: NW 13 mph , 20 km/h
Temperature: 13°C
Dew Point: 12°C
Humidity: 94%
Barometer: 1002 hPa
Clouds: Overcast
Visibility: 6 miles , 10 km
Cloud details: Few Clouds 183 m
Partly cloudy 732 m
Overcast 1524 m
2017/07/20 13:50 EGQS 201350Z 31011KT 9999 FEW006 SCT024 OVC050 13/12 Q1002 WHT TEMPO 7000 -RA SCT010 GRN
EGPF - Glasgow Airport, United Kingdom
Distance from station: SE 121mi, 195km
Updated: 20/07/2017 15:20
Clear
Clear
 Wind from WSW
Wind: WSW 9 mph , 15 km/h
Temperature: 16°C
Dew Point: 9°C
Humidity: 63%
Barometer: 1004 hPa
Clouds: Clear
Visibility: 6 miles , 10 km
2017/07/20 14:20 EGPF 201420Z AUTO 25008KT 9999 NCD 16/09 Q1004
 
EGEC - Campbeltown, United Kingdom
Distance from station: SSE 129mi, 207km
Updated: 20/07/2017 15:20
Few Clouds
Few Clouds
 Wind from ESE
Wind: ESE 2 mph , 4 km/h
Temperature: 16°C
Dew Point: 9°C
Humidity: 63%
Barometer: 1003 hPa
Clouds: Few Clouds
Visibility: 6 miles , 10 km
Cloud details: Few Clouds 762 m
2017/07/20 14:20 EGEC 201420Z 11002KT 9999 FEW025 16/09 Q1003
EGPN - Dundee/Riverside, United Kingdom
Distance from station: ESE 137mi, 221km
Updated: 20/07/2017 15:20
Partly cloudy
Partly cloudy
 Wind from WNW
Wind: WNW 12 mph , 19 km/h
Temperature: 18°C
Dew Point: 11°C
Humidity: 64%
Barometer: 1001 hPa
Clouds: Partly cloudy
Visibility: 6 miles , 10 km
Cloud details: Few Clouds 762 m
Partly cloudy 1494 m
2017/07/20 14:20 EGPN 201420Z 29010KT 9999 FEW025 SCT049 18/11 Q1001
 
EGPK - Prestwick(Civ/Na, United Kingdom
Distance from station: SSE 139mi, 224km
Updated: 20/07/2017 15:20
Few Clouds
Few Clouds
 Wind from WSW
Wind: WSW 10 mph , 17 km/h
Temperature: 15°C
Dew Point: 8°C
Humidity: 63%
Barometer: 1005 hPa
Clouds: Few Clouds
Visibility: 6 miles , 10 km
Cloud details: Few Clouds 549 m
2017/07/20 14:20 EGPK 201420Z 25009KT 9999 FEW018 15/08 Q1005
EGQL - Leuchars Raf, United Kingdom
Distance from station: ESE 145mi, 233km
Updated: 20/07/2017 14:50
Mostly cloudy
Mostly cloudy
 Wind from WNW
Wind: WNW 13 mph , 20 km/h
Temperature: 18°C
Dew Point: 11°C
Humidity: 64%
Barometer: 1001 hPa
Clouds: Mostly cloudy
Visibility: 6 miles , 10 km
Cloud details: Few Clouds 792 m
Partly cloudy 1829 m
Mostly cloudy 3658 m
2017/07/20 13:50 EGQL 201350Z 30011KT 9999 FEW026 SCT060 BKN120 18/11 Q1001 BLU
 
EGPH - Edinburgh Airpor, United Kingdom
Distance from station: SE 145mi, 234km
Updated: 20/07/2017 15:20
Few Clouds
Few Clouds
 Wind from W
Wind: W 10 mph , 17 km/h
Temperature: 15°C
Dew Point: 8°C
Humidity: 63%
Barometer: 1003 hPa
Clouds: Few Clouds
Visibility: 6 miles , 10 km
Cloud details: Few Clouds 1158 m
2017/07/20 14:20 EGPH 201420Z 26009KT 9999 FEW038 15/08 Q1003
EGPC - Wick, United Kingdom
Distance from station: NE 146mi, 234km
Updated: 20/07/2017 15:20
Nearby showers, Mostly cloudy
Nearby showers, Mostly cloudy
 Wind from WNW
Wind: WNW 16 mph , 26 km/h
Temperature: 12°C
Dew Point: 12°C
Humidity: 100%
Barometer: 1002 hPa
Summary: Nearby Showers
Clouds: Mostly cloudy
Visibility: 6 miles , 10 km
Cloud details: Few Clouds 183 m
Mostly cloudy 335 m
2017/07/20 14:20 EGPC 201420Z 29014KT 9999 VCSH FEW006 BKN011CB 12/12 Q1002

-

free counters
QR Code Twitter Scottish Weather Network UK Weather Network
Argyll House B & B

Argyll House B & B is situated in North West Skye and is the perfect base to see all that the Isle of Skye has to offer.
Bookings been taken for 2017.